createdAt,value
2017-11-04T00:00:23.965Z,25.35
2017-11-04T00:00:57.858Z,26.27
2017-11-04T00:01:31.731Z,27.00
2017-11-04T00:02:05.604Z,27.02
2017-11-04T00:02:39.469Z,27.02
2017-11-04T00:03:13.396Z,27.33
2017-11-04T00:03:47.562Z,27.05
2017-11-04T00:04:21.810Z,25.52
2017-11-04T00:04:55.703Z,26.95
2017-11-04T00:05:29.615Z,26.52
2017-11-04T00:06:03.495Z,26.67
2017-11-04T00:06:37.373Z,26.52
2017-11-04T00:07:11.251Z,27.83
2017-11-04T00:07:45.180Z,25.95
2017-11-04T00:08:19.180Z,26.15
2017-11-04T00:08:53.081Z,26.10
2017-11-04T00:09:26.981Z,26.80
2017-11-04T00:10:00.889Z,27.95
2017-11-04T00:10:34.772Z,25.88
2017-11-04T00:11:08.677Z,27.33
2017-11-04T00:11:42.558Z,27.67
2017-11-04T00:12:16.423Z,26.48
2017-11-04T00:12:50.447Z,25.95
2017-11-04T00:13:24.313Z,26.52
2017-11-04T00:13:58.194Z,26.65
2017-11-04T00:14:32.130Z,27.80
2017-11-04T00:15:06.006Z,27.23
2017-11-04T00:15:40.123Z,26.98
2017-11-04T00:16:14.022Z,26.98
2017-11-04T00:16:47.941Z,28.05
2017-11-04T00:17:22.118Z,26.73
2017-11-04T00:17:56.021Z,27.70
2017-11-04T00:18:29.898Z,26.75
2017-11-04T00:19:03.797Z,26.50
2017-11-04T00:19:37.703Z,27.52
2017-11-04T00:20:11.584Z,27.65
2017-11-04T00:20:45.492Z,26.00
2017-11-04T00:21:19.400Z,27.87
2017-11-04T00:21:53.295Z,27.23
2017-11-04T00:22:27.164Z,26.62
2017-11-04T00:23:01.037Z,28.75
2017-11-04T00:23:34.909Z,27.70
2017-11-04T00:24:08.800Z,28.00
2017-11-04T00:24:42.687Z,27.00
2017-11-04T00:25:16.554Z,29.65
2017-11-04T00:25:50.433Z,29.27
2017-11-04T00:26:24.316Z,26.17
2017-11-04T00:26:58.192Z,26.60
2017-11-04T00:27:32.067Z,27.33
2017-11-04T00:28:05.942Z,27.30
2017-11-04T00:28:39.806Z,32.55
2017-11-04T00:29:13.837Z,27.67
2017-11-04T00:29:47.731Z,27.73
2017-11-04T00:30:21.608Z,67.62
2017-11-04T00:30:55.479Z,51.33
2017-11-04T00:31:29.372Z,57.25
2017-11-04T00:32:03.257Z,42.38
2017-11-04T00:32:37.207Z,40.97
2017-11-04T00:33:11.099Z,27.10
2017-11-04T00:33:45.120Z,45.72
2017-11-04T00:34:19.003Z,31.70
2017-11-04T00:34:52.995Z,25.70
2017-11-04T00:35:26.880Z,26.37
2017-11-04T00:36:00.881Z,28.60
2017-11-04T00:36:34.755Z,28.40
2017-11-04T00:37:08.632Z,27.17
2017-11-04T00:37:42.523Z,25.83
2017-11-04T00:38:16.394Z,28.58
2017-11-04T00:38:50.271Z,28.00
2017-11-04T00:39:24.174Z,26.25
2017-11-04T00:39:58.046Z,27.62
2017-11-04T00:40:31.929Z,26.55
2017-11-04T00:41:05.958Z,25.27
2017-11-04T00:41:40.131Z,25.92
2017-11-04T00:42:14.002Z,26.05
2017-11-04T00:42:47.959Z,26.25
2017-11-04T00:43:22.129Z,25.75
2017-11-04T00:43:56.021Z,25.85
2017-11-04T00:44:29.940Z,25.65
2017-11-04T00:45:03.809Z,25.80
2017-11-04T00:45:37.838Z,26.15
2017-11-04T00:46:11.737Z,25.48
2017-11-04T00:46:45.836Z,25.12
2017-11-04T00:47:19.705Z,26.52
2017-11-04T00:47:53.603Z,26.27
2017-11-04T00:48:27.489Z,25.73
2017-11-04T00:49:01.492Z,24.33
2017-11-04T00:49:35.409Z,26.30
2017-11-04T00:50:09.480Z,25.23
2017-11-04T00:50:43.351Z,25.70
2017-11-04T00:51:17.234Z,26.92
2017-11-04T00:51:51.162Z,24.87
2017-11-04T00:52:25.572Z,26.75
2017-11-04T00:52:59.439Z,24.98
2017-11-04T00:53:33.588Z,26.85
2017-11-04T00:54:07.459Z,24.75
2017-11-04T00:54:41.485Z,26.60
2017-11-04T00:55:15.363Z,23.98
2017-11-04T00:55:49.250Z,25.23
2017-11-04T00:56:23.159Z,24.80
2017-11-04T00:56:57.014Z,25.33
2017-11-04T00:57:30.886Z,24.67
2017-11-04T00:58:04.801Z,25.33
2017-11-04T00:58:38.738Z,27.20
2017-11-04T00:59:12.926Z,26.83
2017-11-04T00:59:46.942Z,25.30
2017-11-04T01:00:20.817Z,25.08
2017-11-04T01:00:54.686Z,25.37
2017-11-04T01:01:28.565Z,24.90
2017-11-04T01:02:02.445Z,26.77
2017-11-04T01:02:36.322Z,25.65
2017-11-04T01:03:10.210Z,26.73
2017-11-04T01:03:44.085Z,24.48
2017-11-04T01:04:17.972Z,25.27
2017-11-04T01:04:51.862Z,26.00
2017-11-04T01:05:25.774Z,26.05
2017-11-04T01:05:59.640Z,25.30
2017-11-04T01:06:33.679Z,26.00
2017-11-04T01:07:07.555Z,24.27
2017-11-04T01:07:41.572Z,25.12
2017-11-04T01:08:15.447Z,25.40
2017-11-04T01:08:49.446Z,24.33
2017-11-04T01:09:23.321Z,24.42
2017-11-04T01:09:57.224Z,25.02
2017-11-04T01:10:31.173Z,26.70
2017-11-04T01:11:05.054Z,25.37
2017-11-04T01:11:38.921Z,25.77
2017-11-04T01:12:12.858Z,25.30
2017-11-04T01:12:46.731Z,24.48
2017-11-04T01:13:20.601Z,24.58
2017-11-04T01:13:54.484Z,24.60
2017-11-04T01:14:28.376Z,24.90
2017-11-04T01:15:02.241Z,25.50
2017-11-04T01:15:36.195Z,24.98
2017-11-04T01:16:10.066Z,24.48
2017-11-04T01:16:44.134Z,23.55
2017-11-04T01:17:18.226Z,24.05
2017-11-04T01:17:52.202Z,25.62
2017-11-04T01:18:26.081Z,23.62
2017-11-04T01:18:59.960Z,23.48
2017-11-04T01:19:34.019Z,22.80
2017-11-04T01:20:07.903Z,23.40
2017-11-04T01:20:41.794Z,24.25
2017-11-04T01:21:15.665Z,24.40
2017-11-04T01:21:49.549Z,23.10
2017-11-04T01:22:23.453Z,23.40
2017-11-04T01:22:57.304Z,25.67
2017-11-04T01:23:31.167Z,24.80
2017-11-04T01:24:05.043Z,25.12
2017-11-04T01:24:39.251Z,25.12
2017-11-04T01:25:13.174Z,25.67
2017-11-04T01:25:47.059Z,24.70
2017-11-04T01:26:21.022Z,26.40
2017-11-04T01:26:54.873Z,24.40
2017-11-04T01:27:28.744Z,24.75
2017-11-04T01:28:02.604Z,23.73
2017-11-04T01:28:36.480Z,24.60
2017-11-04T01:29:10.359Z,26.55
2017-11-04T01:29:44.321Z,24.35
2017-11-04T01:30:18.215Z,25.85
2017-11-04T01:30:52.102Z,25.37
2017-11-04T01:31:25.988Z,26.15
2017-11-04T01:31:59.860Z,24.55
2017-11-04T01:32:33.732Z,24.15
2017-11-04T01:33:07.803Z,24.83
2017-11-04T01:33:41.679Z,26.77
2017-11-04T01:34:15.567Z,26.75
2017-11-04T01:34:49.430Z,26.10
2017-11-04T01:35:23.482Z,25.77
2017-11-04T01:35:57.374Z,25.25
2017-11-04T01:36:31.245Z,27.65
2017-11-04T01:37:05.256Z,27.25
2017-11-04T01:37:39.118Z,27.55
2017-11-04T01:38:13.010Z,26.52
2017-11-04T01:38:46.890Z,25.95
2017-11-04T01:39:20.772Z,25.73
2017-11-04T01:39:54.665Z,23.38
2017-11-04T01:40:28.545Z,24.58
2017-11-04T01:41:02.427Z,25.10
2017-11-04T01:41:36.304Z,24.48
2017-11-04T01:42:10.408Z,25.10
2017-11-04T01:42:44.750Z,24.05
2017-11-04T01:43:18.625Z,24.73
2017-11-04T01:43:52.627Z,26.17
2017-11-04T01:44:26.489Z,26.58
2017-11-04T01:45:00.516Z,26.12
2017-11-04T01:45:34.416Z,24.00
2017-11-04T01:46:08.398Z,26.70
2017-11-04T01:46:42.272Z,24.58
2017-11-04T01:47:16.142Z,24.70
2017-11-04T01:47:50.014Z,25.77
2017-11-04T01:48:23.490Z,24.67
2017-11-04T01:48:57.367Z,26.50
2017-11-04T01:49:31.242Z,26.40
2017-11-04T01:50:05.139Z,27.20
2017-11-04T01:50:39.042Z,25.30
2017-11-04T01:51:12.923Z,25.45
2017-11-04T01:51:46.827Z,27.20
2017-11-04T01:52:20.732Z,26.80
2017-11-04T01:52:54.618Z,25.85
2017-11-04T01:53:28.240Z,24.77
2017-11-04T01:54:01.866Z,27.83
2017-11-04T01:54:36.144Z,29.65
2017-11-04T01:55:10.098Z,29.33
2017-11-04T01:55:44.124Z,25.83
2017-11-04T01:56:17.979Z,26.67
2017-11-04T01:56:52.093Z,25.23
2017-11-04T01:57:26.117Z,25.98
2017-11-04T01:57:59.982Z,27.08
2017-11-04T01:58:33.999Z,25.88
2017-11-04T01:59:08.012Z,26.20
2017-11-04T01:59:41.881Z,25.70
2017-11-04T02:00:15.771Z,27.27
2017-11-04T02:00:49.793Z,24.73
2017-11-04T02:01:26.606Z,27.95
2017-11-04T02:02:00.487Z,25.75
2017-11-04T02:02:34.754Z,25.65
2017-11-04T02:03:08.632Z,26.25
2017-11-04T02:03:42.508Z,27.02
2017-11-04T02:04:16.392Z,24.85
2017-11-04T02:04:50.261Z,26.48
2017-11-04T02:05:24.134Z,26.95
2017-11-04T02:05:58.308Z,26.62
2017-11-04T02:06:32.189Z,25.23
2017-11-04T02:07:06.081Z,27.48
2017-11-04T02:07:39.963Z,26.35
2017-11-04T02:08:14.008Z,27.65
2017-11-04T02:08:47.904Z,26.48
2017-11-04T02:09:22.098Z,26.02
2017-11-04T02:09:55.963Z,26.08
2017-11-04T02:10:29.828Z,29.02
2017-11-04T02:11:03.728Z,26.10
2017-11-04T02:11:37.604Z,24.83
2017-11-04T02:12:11.495Z,25.95
2017-11-04T02:12:45.665Z,27.02
2017-11-04T02:13:19.531Z,26.92
2017-11-04T02:13:53.400Z,28.52
2017-11-04T02:14:27.284Z,27.90
2017-11-04T02:15:01.150Z,26.52
2017-11-04T02:15:35.018Z,26.80
2017-11-04T02:16:08.908Z,26.83
2017-11-04T02:16:42.784Z,27.83
2017-11-04T02:17:16.652Z,25.70
2017-11-04T02:17:50.724Z,26.23
2017-11-04T02:18:24.627Z,28.20
2017-11-04T02:18:58.538Z,26.80
2017-11-04T02:19:32.411Z,27.75
2017-11-04T02:20:06.282Z,26.08
2017-11-04T02:20:40.160Z,27.80
2017-11-04T02:21:14.199Z,26.15
2017-11-04T02:21:48.087Z,27.45
2017-11-04T02:22:22.194Z,26.33
2017-11-04T02:22:56.092Z,29.12
2017-11-04T02:23:29.959Z,28.27
2017-11-04T02:24:03.834Z,27.67
2017-11-04T02:24:37.899Z,27.40
2017-11-04T02:25:11.775Z,26.55
2017-11-04T02:25:45.658Z,25.45
2017-11-04T02:26:19.560Z,25.70
2017-11-04T02:26:53.422Z,25.15
2017-11-04T02:27:27.309Z,24.65
2017-11-04T02:28:01.369Z,25.33
2017-11-04T02:28:35.257Z,26.83
2017-11-04T02:29:09.116Z,26.35
2017-11-04T02:29:43.047Z,27.00
2017-11-04T02:30:16.926Z,25.10
2017-11-04T02:30:50.836Z,25.23
2017-11-04T02:31:24.718Z,26.20
2017-11-04T02:31:58.589Z,28.30
2017-11-04T02:32:32.471Z,28.70
2017-11-04T02:33:06.351Z,26.45
2017-11-04T02:43:20.281Z,22.60
2017-11-04T02:43:54.169Z,22.30
2017-11-04T02:44:28.047Z,24.70
2017-11-04T02:45:02.108Z,25.20
2017-11-04T02:45:36.004Z,26.05
2017-11-04T02:46:09.888Z,25.42
2017-11-04T02:46:43.757Z,27.15
2017-11-04T02:47:17.648Z,27.10
2017-11-04T02:47:51.541Z,26.77
2017-11-04T02:48:25.551Z,26.52
2017-11-04T02:48:59.432Z,25.92
2017-11-04T02:49:33.349Z,27.17
2017-11-04T02:50:07.229Z,27.40
2017-11-04T02:50:41.108Z,26.55
2017-11-04T02:51:15.256Z,27.40
2017-11-04T02:51:49.137Z,27.45
2017-11-04T02:52:23.049Z,27.85
2017-11-04T02:52:56.922Z,27.17
2017-11-04T02:53:30.825Z,27.58
2017-11-04T02:54:04.694Z,26.75
2017-11-04T02:54:38.625Z,27.65
2017-11-04T02:55:12.502Z,25.00
2017-11-04T02:55:46.376Z,26.60
2017-11-04T02:56:20.260Z,26.50
2017-11-04T02:56:54.320Z,27.67
2017-11-04T02:57:28.187Z,26.27
2017-11-04T02:58:02.048Z,26.80
2017-11-04T02:58:36.228Z,25.67
2017-11-04T02:59:10.118Z,24.45
2017-11-04T02:59:43.999Z,24.63
2017-11-04T03:00:17.863Z,24.85
2017-11-04T03:00:51.729Z,26.55
2017-11-04T03:01:25.596Z,27.10
2017-11-04T03:01:59.463Z,25.95
2017-11-04T03:02:33.370Z,25.83
2017-11-04T03:03:07.249Z,26.92
2017-11-04T03:03:41.579Z,27.48
2017-11-04T03:04:15.451Z,25.70
2017-11-04T03:04:49.324Z,26.45
2017-11-04T03:05:23.188Z,27.27
2017-11-04T03:05:57.162Z,25.55
2017-11-04T03:06:31.030Z,25.70
2017-11-04T03:07:05.040Z,24.77
2017-11-04T03:07:38.915Z,25.45
2017-11-04T03:08:12.765Z,26.75
2017-11-04T03:08:46.940Z,26.58
2017-11-04T03:09:20.837Z,26.52
2017-11-04T03:09:54.717Z,26.05
2017-11-04T03:10:28.739Z,24.58
2017-11-04T03:11:02.622Z,25.45
2017-11-04T03:11:36.622Z,25.20
2017-11-04T03:12:10.620Z,25.52
2017-11-04T03:12:44.507Z,25.40
2017-11-04T03:13:18.390Z,26.15
2017-11-04T03:13:52.301Z,27.35
2017-11-04T03:14:26.410Z,26.45
2017-11-04T03:15:00.295Z,27.30
2017-11-04T03:15:34.307Z,25.27
2017-11-04T03:16:08.177Z,25.73
2017-11-04T03:16:42.061Z,24.40
2017-11-04T03:17:16.091Z,24.55
2017-11-04T03:17:49.970Z,23.02
2017-11-04T03:18:23.846Z,26.23
2017-11-04T03:18:57.981Z,26.62
2017-11-04T03:19:31.847Z,25.10
2017-11-04T03:20:05.756Z,25.12
2017-11-04T03:20:39.627Z,25.42
2017-11-04T03:21:13.496Z,25.37
2017-11-04T03:21:47.373Z,25.73
2017-11-04T03:22:21.476Z,25.25
2017-11-04T03:22:55.354Z,25.37
2017-11-04T03:23:29.240Z,24.65
2017-11-04T03:24:03.117Z,25.02
2017-11-04T03:24:37.143Z,24.10
2017-11-04T03:25:11.022Z,24.17
2017-11-04T03:25:44.913Z,25.48
2017-11-04T03:26:18.938Z,25.73
2017-11-04T03:26:52.811Z,25.73
2017-11-04T03:27:26.705Z,24.90
2017-11-04T03:28:00.591Z,24.75
2017-11-04T03:28:34.455Z,25.00
2017-11-04T03:29:08.350Z,25.83
2017-11-04T03:29:42.386Z,24.48
2017-11-04T03:30:16.269Z,26.27
2017-11-04T03:30:50.141Z,24.48
2017-11-04T03:31:24.021Z,23.60
2017-11-04T03:31:57.900Z,25.98
2017-11-04T03:32:31.766Z,24.02
2017-11-04T03:33:05.771Z,25.12
2017-11-04T03:33:39.635Z,24.95
2017-11-04T03:34:13.532Z,23.80
2017-11-04T03:34:47.441Z,22.95
2017-11-04T03:35:21.317Z,23.77
2017-11-04T03:35:55.192Z,23.80
2017-11-04T03:36:29.076Z,24.58
2017-11-04T03:37:02.961Z,23.83
2017-11-04T03:37:36.954Z,26.02
2017-11-04T03:38:11.037Z,25.15
2017-11-04T03:38:44.918Z,25.05
2017-11-04T03:39:18.809Z,23.87
2017-11-04T03:39:52.687Z,25.27
2017-11-04T03:40:26.563Z,23.92
2017-11-04T03:41:00.520Z,24.00
2017-11-04T03:41:34.608Z,25.33
2017-11-04T03:42:08.474Z,25.05
2017-11-04T03:42:42.353Z,23.02
2017-11-04T03:43:16.225Z,27.13
2017-11-04T03:43:50.116Z,25.75
2017-11-04T03:44:23.995Z,25.02
2017-11-04T03:44:57.980Z,24.48
2017-11-04T03:45:32.183Z,25.23
2017-11-04T03:46:06.060Z,24.17
2017-11-04T03:46:40.089Z,24.50
2017-11-04T03:47:13.960Z,23.98
2017-11-04T03:47:47.974Z,24.35
2017-11-04T03:48:21.845Z,24.73
2017-11-04T03:48:55.865Z,23.62
2017-11-04T03:49:29.957Z,24.42
2017-11-04T03:50:03.843Z,22.92
2017-11-04T03:50:37.979Z,24.10
2017-11-04T03:51:11.847Z,24.77
2017-11-04T03:51:45.718Z,23.10
2017-11-04T03:52:19.865Z,24.12
2017-11-04T03:52:53.737Z,23.25
2017-11-04T03:53:27.634Z,24.50
2017-11-04T03:54:01.504Z,24.02
2017-11-04T03:54:35.643Z,25.33
2017-11-04T03:55:09.516Z,25.35
2017-11-04T03:55:43.541Z,24.23
2017-11-04T03:56:17.418Z,22.87
2017-11-04T03:56:51.612Z,23.08
2017-11-04T03:57:25.490Z,22.27
2017-11-04T03:57:59.361Z,25.25
2017-11-04T03:58:33.234Z,23.98
2017-11-04T03:59:07.213Z,23.75
2017-11-04T03:59:41.091Z,25.08
2017-11-04T04:00:14.979Z,24.08
2017-11-04T04:00:48.898Z,23.87
2017-11-04T04:01:22.773Z,23.23
2017-11-04T04:01:56.876Z,23.85
2017-11-04T04:02:30.758Z,23.12
2017-11-04T04:03:04.633Z,23.23
2017-11-04T04:03:38.685Z,23.23
2017-11-04T04:04:12.560Z,21.65
2017-11-04T04:04:46.473Z,22.55
2017-11-04T04:05:20.357Z,22.33
2017-11-04T04:05:54.218Z,23.00
2017-11-04T04:06:28.086Z,24.05
2017-11-04T04:07:02.042Z,22.55
2017-11-04T04:07:35.939Z,22.10
2017-11-04T04:08:09.805Z,22.60
2017-11-04T04:08:43.923Z,24.17
2017-11-04T04:09:17.790Z,22.80
2017-11-04T04:09:51.739Z,23.05
2017-11-04T04:10:25.614Z,23.30
2017-11-04T04:10:59.485Z,23.60
2017-11-04T04:11:33.414Z,22.20
2017-11-04T04:12:07.319Z,23.00
2017-11-04T04:12:41.326Z,22.52
2017-11-04T04:13:15.215Z,24.45
2017-11-04T04:13:49.084Z,22.50
2017-11-04T04:14:22.953Z,22.90
2017-11-04T04:14:56.836Z,23.33
2017-11-04T04:15:30.975Z,24.33
2017-11-04T04:16:04.832Z,22.37
2017-11-04T04:16:38.780Z,22.75
2017-11-04T04:17:12.644Z,22.67
2017-11-04T04:17:46.510Z,23.05
2017-11-04T04:18:20.421Z,23.00
2017-11-04T04:18:54.300Z,23.15
2017-11-04T04:19:28.182Z,22.48
2017-11-04T04:20:02.240Z,23.40
2017-11-04T04:20:36.125Z,23.40
2017-11-04T04:21:09.998Z,22.62
2017-11-04T04:21:44.050Z,23.73
2017-11-04T04:22:18.334Z,21.77
2017-11-04T04:22:52.208Z,21.85
2017-11-04T04:23:26.146Z,22.67
2017-11-04T04:24:00.150Z,23.58
2017-11-04T04:24:34.244Z,22.75
2017-11-04T04:25:08.141Z,23.60
2017-11-04T04:25:42.321Z,23.17
2017-11-04T04:26:16.252Z,22.67
2017-11-04T04:26:50.127Z,23.38
2017-11-04T04:27:24.312Z,23.45
2017-11-04T04:27:58.180Z,23.17
2017-11-04T04:28:32.142Z,22.15
2017-11-04T04:29:06.034Z,22.10
2017-11-04T04:29:39.917Z,21.85
2017-11-04T04:30:14.012Z,23.30
2017-11-04T04:30:47.893Z,22.77
2017-11-04T04:31:21.771Z,22.37
2017-11-04T04:31:55.635Z,21.92
2017-11-04T04:32:29.530Z,22.77
2017-11-04T04:33:03.408Z,22.05
2017-11-04T04:33:37.486Z,22.10
2017-11-04T04:34:11.352Z,21.60
2017-11-04T04:34:45.239Z,23.08
2017-11-04T04:35:19.108Z,23.02
2017-11-04T04:35:52.980Z,21.87
2017-11-04T04:36:26.878Z,23.00
2017-11-04T04:37:00.766Z,22.17
2017-11-04T04:37:34.631Z,22.35
2017-11-04T04:38:08.506Z,22.73
2017-11-04T04:38:42.379Z,21.95
2017-11-04T04:39:16.254Z,22.98
2017-11-04T04:39:50.123Z,23.42
2017-11-04T04:40:24.023Z,23.05
2017-11-04T04:40:57.902Z,22.65
2017-11-04T04:41:31.772Z,21.50
2017-11-04T04:42:05.693Z,22.23
2017-11-04T04:42:39.695Z,20.40
2017-11-04T04:43:13.567Z,21.75
2017-11-04T04:43:47.445Z,24.05
2017-11-04T04:44:21.327Z,21.87
2017-11-04T04:44:55.203Z,22.13
2017-11-04T04:45:29.106Z,22.52
2017-11-04T04:46:02.968Z,22.40
2017-11-04T04:46:36.828Z,22.13
2017-11-04T04:47:10.751Z,21.10
2017-11-04T04:47:44.774Z,25.27
2017-11-04T04:48:18.661Z,24.23
2017-11-04T04:48:52.642Z,21.80
2017-11-04T04:49:26.517Z,23.87
2017-11-04T04:50:00.550Z,22.70
2017-11-04T04:50:34.453Z,22.00
2017-11-04T04:51:08.445Z,21.40
2017-11-04T04:51:42.316Z,22.90
2017-11-04T04:52:16.339Z,22.92
2017-11-04T04:52:50.209Z,22.70
2017-11-04T04:53:24.250Z,21.15
2017-11-04T04:53:58.331Z,21.90
2017-11-04T04:54:32.205Z,23.12
2017-11-04T04:55:06.109Z,21.95
2017-11-04T04:55:40.028Z,22.15
2017-11-04T04:56:14.116Z,22.33
2017-11-04T04:56:47.991Z,21.37
2017-11-04T04:57:22.097Z,23.12
2017-11-04T04:57:55.971Z,21.60
2017-11-04T04:58:29.849Z,22.30
2017-11-04T04:59:03.748Z,23.65
2017-11-04T04:59:37.836Z,22.42
2017-11-04T05:00:11.893Z,22.02
2017-11-04T05:00:45.907Z,21.62
2017-11-04T05:01:19.786Z,22.25
2017-11-04T05:01:53.643Z,22.70
2017-11-04T05:02:27.682Z,22.17
2017-11-04T05:03:01.559Z,23.27
2017-11-04T05:03:35.443Z,22.42
2017-11-04T05:04:09.315Z,22.45
2017-11-04T05:04:43.188Z,22.27
2017-11-04T05:05:17.061Z,22.83
2017-11-04T05:05:50.951Z,22.87
2017-11-04T05:06:24.836Z,23.30
2017-11-04T05:06:58.705Z,22.85
2017-11-04T05:07:32.822Z,22.20
2017-11-04T05:08:06.841Z,22.48
2017-11-04T05:08:40.711Z,22.58
2017-11-04T05:09:14.584Z,22.13
2017-11-04T05:09:48.478Z,22.77
2017-11-04T05:10:22.359Z,21.67
2017-11-04T05:10:56.500Z,22.80
2017-11-04T05:11:30.373Z,20.92
2017-11-04T05:12:04.296Z,22.52
2017-11-04T05:12:38.189Z,21.20
2017-11-04T05:13:12.052Z,23.02
2017-11-04T05:13:46.184Z,22.37
2017-11-04T05:14:20.061Z,24.37
2017-11-04T05:14:54.089Z,23.95
2017-11-04T05:15:27.968Z,23.42
2017-11-04T05:16:01.866Z,23.42
2017-11-04T05:16:35.776Z,21.62
2017-11-04T05:17:09.681Z,25.23
2017-11-04T05:17:43.561Z,23.92
2017-11-04T05:18:17.424Z,24.08
2017-11-04T05:18:51.361Z,22.98
2017-11-04T05:19:25.259Z,22.95
2017-11-04T05:19:59.136Z,20.90
2017-11-04T05:20:33.044Z,22.58
2017-11-04T05:21:07.240Z,23.45
2017-11-04T05:21:41.132Z,23.23
2017-11-04T05:22:15.038Z,21.73
2017-11-04T05:22:51.852Z,22.45
2017-11-04T05:23:25.727Z,22.10
2017-11-04T05:23:59.701Z,21.08
2017-11-04T05:24:33.601Z,23.70
2017-11-04T05:25:07.595Z,23.80
2017-11-04T05:25:41.467Z,25.08
2017-11-04T05:26:15.344Z,22.23
2017-11-04T05:26:49.207Z,22.75
2017-11-04T05:27:23.166Z,22.23
2017-11-04T05:27:57.353Z,23.98
2017-11-04T05:28:31.232Z,24.60
2017-11-04T05:29:05.095Z,23.60
2017-11-04T05:29:39.040Z,22.33
2017-11-04T05:30:13.052Z,24.85
2017-11-04T05:30:46.948Z,24.15
2017-11-04T05:31:21.031Z,26.00
2017-11-04T05:31:55.049Z,23.62
2017-11-04T05:32:28.923Z,24.10
2017-11-04T05:33:02.944Z,24.80
2017-11-04T05:33:37.127Z,23.12
2017-11-04T05:34:11.012Z,22.48
2017-11-04T05:34:44.923Z,25.30
2017-11-04T05:35:18.926Z,21.67
2017-11-04T05:35:52.797Z,22.95
2017-11-04T05:36:26.676Z,22.98
2017-11-04T05:37:00.553Z,22.95
2017-11-04T05:37:34.430Z,23.38
2017-11-04T05:38:08.529Z,22.62
2017-11-04T05:38:42.799Z,23.77
2017-11-04T05:39:16.807Z,23.80
2017-11-04T05:39:50.680Z,21.95
2017-11-04T05:40:24.713Z,22.77
2017-11-04T05:40:58.894Z,22.33
2017-11-04T05:41:32.925Z,23.65
2017-11-04T05:42:07.030Z,23.17
2017-11-04T05:42:41.191Z,23.27
2017-11-04T05:43:15.104Z,21.70
2017-11-04T05:43:49.191Z,22.50
2017-11-04T05:44:23.111Z,23.00
2017-11-04T05:44:57.027Z,22.62
2017-11-04T05:45:30.909Z,23.95
2017-11-04T05:46:04.806Z,23.62
2017-11-04T05:46:38.692Z,23.05
2017-11-04T05:47:12.677Z,22.48
2017-11-04T05:47:46.556Z,22.52
2017-11-04T05:48:20.433Z,23.08
2017-11-04T05:48:56.987Z,23.52
2017-11-04T05:49:31.114Z,22.60
2017-11-04T05:50:04.988Z,23.42
2017-11-04T05:50:38.873Z,21.98
2017-11-04T05:51:12.932Z,22.52
2017-11-04T05:51:46.810Z,22.90
2017-11-04T05:52:20.791Z,23.30
2017-11-04T05:52:54.658Z,21.87
2017-11-04T05:53:28.698Z,21.80
2017-11-04T05:54:02.559Z,22.58
2017-11-04T05:54:36.425Z,22.30
2017-11-04T05:55:10.378Z,22.27
2017-11-04T05:55:44.254Z,24.05
2017-11-04T05:56:18.176Z,22.85
2017-11-04T05:56:52.156Z,23.83
2017-11-04T05:57:26.024Z,23.35
2017-11-04T05:58:00.050Z,23.67
2017-11-04T05:58:33.920Z,21.10
2017-11-04T05:59:07.861Z,24.35
2017-11-04T05:59:41.752Z,21.33
2017-11-04T06:00:15.626Z,22.27
2017-11-04T06:00:49.500Z,23.42
2017-11-04T06:01:23.371Z,22.52
2017-11-04T06:01:57.267Z,22.75
2017-11-04T06:02:31.237Z,22.30
2017-11-04T06:03:05.110Z,22.17
2017-11-04T06:03:39.126Z,22.62
2017-11-04T06:04:13.010Z,24.23
2017-11-04T06:04:46.894Z,23.15
2017-11-04T06:05:20.812Z,22.08
2017-11-04T06:05:54.690Z,22.92
2017-11-04T06:06:28.560Z,22.13
2017-11-04T06:07:02.443Z,24.08
2017-11-04T06:07:36.372Z,22.05
2017-11-04T06:08:10.235Z,22.98
2017-11-04T06:08:44.181Z,23.60
2017-11-04T06:09:18.057Z,22.48
2017-11-04T06:09:52.098Z,24.63
2017-11-04T06:10:26.177Z,22.75
2017-11-04T06:11:00.042Z,22.27
2017-11-04T06:11:33.919Z,22.83
2017-11-04T06:12:08.078Z,22.58
2017-11-04T06:12:41.951Z,23.17
2017-11-04T06:13:15.829Z,21.90
2017-11-04T06:13:50.599Z,22.85
2017-11-04T06:14:24.570Z,21.02
2017-11-04T06:14:58.659Z,22.55
2017-11-04T06:15:32.661Z,21.85
2017-11-04T06:16:06.563Z,23.42
2017-11-04T06:16:40.551Z,22.95
2017-11-04T06:17:14.470Z,22.67
2017-11-04T06:17:48.342Z,21.23
2017-11-04T06:18:22.430Z,22.45
2017-11-04T06:18:56.444Z,24.55
2017-11-04T06:19:30.328Z,24.52
2017-11-04T06:20:04.424Z,24.25
2017-11-04T06:20:38.318Z,23.08
2017-11-04T06:21:12.228Z,21.83
2017-11-04T06:21:46.097Z,21.35
2017-11-04T06:22:20.131Z,23.17
2017-11-04T06:22:54.016Z,23.42
2017-11-04T06:23:28.009Z,22.25
2017-11-04T06:24:01.886Z,22.25
2017-11-04T06:24:35.921Z,22.50
2017-11-04T06:25:10.233Z,23.73
2017-11-04T06:25:44.103Z,24.05
2017-11-04T06:26:17.986Z,24.50
2017-11-04T06:26:51.848Z,22.95
2017-11-04T06:27:26.191Z,23.38
2017-11-04T06:28:00.599Z,22.80
2017-11-04T06:28:34.604Z,22.75
2017-11-04T06:29:08.471Z,24.37
2017-11-04T06:29:42.590Z,23.52
2017-11-04T06:30:16.473Z,23.23
2017-11-04T06:30:50.426Z,22.15
2017-11-04T06:31:24.302Z,23.70
2017-11-04T06:31:58.178Z,23.17
2017-11-04T06:32:32.115Z,22.70
2017-11-04T06:33:06.269Z,22.70
2017-11-04T06:33:40.137Z,24.52
2017-11-04T06:34:14.028Z,22.55
2017-11-04T06:34:47.988Z,24.40
2017-11-04T06:35:21.860Z,22.55
2017-11-04T06:35:55.741Z,21.67
2017-11-04T06:36:29.620Z,23.48
2017-11-04T06:37:03.539Z,23.50
2017-11-04T06:37:37.486Z,23.67
2017-11-04T06:38:11.362Z,22.50
2017-11-04T06:38:45.243Z,23.90
2017-11-04T06:39:19.343Z,24.92
2017-11-04T06:39:53.240Z,22.65
2017-11-04T06:40:27.095Z,22.50
2017-11-04T06:41:01.194Z,22.23
2017-11-04T06:41:35.311Z,25.62
2017-11-04T06:42:09.207Z,23.15
2017-11-04T06:42:43.090Z,22.87
2017-11-04T06:43:16.971Z,23.73
2017-11-04T06:43:51.003Z,24.33
2017-11-04T06:44:24.875Z,23.40
2017-11-04T06:44:58.992Z,24.05
2017-11-04T06:45:32.866Z,23.10
2017-11-04T06:46:06.788Z,23.50
2017-11-04T06:46:40.691Z,22.75
2017-11-04T06:47:14.597Z,22.67
2017-11-04T06:47:48.642Z,23.75
2017-11-04T06:48:22.520Z,23.20
2017-11-04T06:48:56.474Z,22.37
2017-11-04T06:49:30.348Z,21.92
2017-11-04T06:50:04.229Z,23.25
2017-11-04T06:50:38.139Z,24.37
2017-11-04T06:51:12.060Z,22.80
2017-11-04T06:51:45.944Z,22.83
2017-11-04T06:52:19.812Z,23.60
2017-11-04T06:52:53.700Z,22.33
2017-11-04T06:53:27.581Z,22.10
2017-11-04T06:54:01.453Z,22.17
2017-11-04T06:54:35.625Z,23.48
2017-11-04T06:55:09.518Z,22.80
2017-11-04T06:55:43.401Z,23.48
2017-11-04T06:56:17.283Z,23.60
2017-11-04T06:56:51.217Z,23.67
2017-11-04T06:57:25.094Z,22.73
2017-11-04T06:57:59.114Z,22.98
2017-11-04T06:58:33.207Z,22.13
2017-11-04T06:59:07.085Z,22.65
2017-11-04T06:59:40.947Z,23.58
2017-11-04T07:00:14.832Z,22.70
2017-11-04T07:00:48.707Z,24.30
2017-11-04T07:01:22.581Z,23.27
2017-11-04T07:01:56.444Z,23.25
2017-11-04T07:02:30.318Z,24.30
2017-11-04T07:03:04.663Z,23.70
2017-11-04T07:03:38.551Z,23.58
2017-11-04T07:04:12.480Z,22.60
2017-11-04T07:04:46.361Z,22.90
2017-11-04T07:05:20.276Z,22.37
2017-11-04T07:05:54.142Z,21.95
2017-11-04T07:06:28.026Z,23.95
2017-11-04T07:07:02.045Z,23.25
2017-11-04T07:07:35.917Z,23.52
2017-11-04T07:08:09.904Z,22.90
2017-11-04T07:08:43.783Z,21.50
2017-11-04T07:09:17.650Z,22.73
2017-11-04T07:09:51.529Z,23.60
2017-11-04T07:10:25.403Z,23.95
2017-11-04T07:10:59.285Z,24.30
2017-11-04T07:11:33.307Z,24.10
2017-11-04T07:12:07.180Z,23.12
2017-11-04T07:12:41.295Z,23.05
2017-11-04T07:13:15.370Z,23.85
2017-11-04T07:13:49.244Z,22.30
2017-11-04T07:14:23.183Z,23.70
2017-11-04T07:14:57.047Z,24.30
2017-11-04T07:15:31.045Z,24.20
2017-11-04T07:16:05.116Z,22.25
2017-11-04T07:16:39.206Z,22.73
2017-11-04T07:17:13.284Z,24.77
2017-11-04T07:17:47.171Z,23.60
2017-11-04T07:18:21.055Z,22.13
2017-11-04T07:18:54.938Z,23.42
2017-11-04T07:19:29.080Z,23.55
2017-11-04T07:20:02.956Z,24.63
2017-11-04T07:20:36.832Z,24.00
2017-11-04T07:21:10.704Z,23.62
2017-11-04T07:21:44.656Z,23.40
2017-11-04T07:22:18.561Z,22.85
2017-11-04T07:22:52.762Z,22.77
2017-11-04T07:23:26.671Z,23.83
2017-11-04T07:24:00.537Z,22.92
2017-11-04T07:24:34.416Z,23.20
2017-11-04T07:25:08.476Z,23.17
2017-11-04T07:25:42.354Z,23.25
2017-11-04T07:26:16.233Z,24.08
2017-11-04T07:26:50.106Z,23.08